createdAt,value
2022-12-01T00:01:22.202Z,75.55
2022-12-01T00:05:01.706Z,76.07
2022-12-01T00:08:24.081Z,75.76
2022-12-01T00:11:54.582Z,76.21
2022-12-01T00:15:31.884Z,76.77
2022-12-01T00:22:26.798Z,78.17
2022-12-01T00:33:44.650Z,78.59
2022-12-01T00:37:00.661Z,79.34
2022-12-01T00:40:16.649Z,79.18
2022-12-01T00:43:26.718Z,79.99
2022-12-01T00:46:37.640Z,79.92
2022-12-01T00:49:46.898Z,80.45
2022-12-01T00:52:57.654Z,81.38
2022-12-01T00:56:06.561Z,81.64
2022-12-01T00:59:28.665Z,81.56
2022-12-01T01:02:41.034Z,80.92
2022-12-01T01:05:51.770Z,80.90
2022-12-01T01:09:00.244Z,80.93
2022-12-01T01:12:08.706Z,80.93
2022-12-01T01:15:27.729Z,81.26
2022-12-01T01:18:35.639Z,81.59
2022-12-01T01:21:51.614Z,81.66
2022-12-01T01:25:09.623Z,81.44
2022-12-01T01:28:19.039Z,81.35
2022-12-01T01:31:36.829Z,81.81
2022-12-01T01:34:46.905Z,81.50
2022-12-01T01:38:05.676Z,81.42
2022-12-01T01:41:16.131Z,81.59
2022-12-01T01:44:51.574Z,81.99
2022-12-01T01:48:27.866Z,82.09
2022-12-01T01:51:37.017Z,82.21
2022-12-01T01:55:14.704Z,82.02
2022-12-01T01:58:24.070Z,82.70
2022-12-01T02:01:34.072Z,83.23
2022-12-01T02:04:47.950Z,83.56
2022-12-01T02:08:04.691Z,83.90
2022-12-01T02:11:42.434Z,84.22
2022-12-01T02:15:20.827Z,84.45
2022-12-01T02:18:45.905Z,85.17
2022-12-01T02:22:29.695Z,85.47
2022-12-01T02:26:22.741Z,85.80
2022-12-01T02:30:07.027Z,86.37
2022-12-01T02:33:35.842Z,87.68
2022-12-01T02:37:01.710Z,87.18
2022-12-01T02:40:21.662Z,87.62
2022-12-01T02:43:50.606Z,88.01
2022-12-01T02:47:03.512Z,88.14
2022-12-01T02:50:19.679Z,87.88
2022-12-01T02:53:22.022Z,87.15
2022-12-01T02:56:36.605Z,86.45
2022-12-01T02:59:41.798Z,86.25
2022-12-01T03:03:25.248Z,85.45
2022-12-01T03:07:21.083Z,85.74
2022-12-01T03:10:45.324Z,85.92
2022-12-01T03:14:43.041Z,86.46
2022-12-01T03:18:23.820Z,87.19
2022-12-01T03:21:35.063Z,87.86
2022-12-01T03:24:55.658Z,88.24
2022-12-01T03:28:20.625Z,88.55
2022-12-01T03:31:39.735Z,88.99
2022-12-01T03:34:54.574Z,89.24
2022-12-01T03:38:19.671Z,87.83
2022-12-01T03:41:27.905Z,86.80
2022-12-01T03:44:51.938Z,86.45
2022-12-01T03:48:09.707Z,85.70
2022-12-01T03:51:44.967Z,85.58
2022-12-01T03:55:11.763Z,85.20
2022-12-01T03:58:41.722Z,85.02
2022-12-01T04:01:51.817Z,85.09
2022-12-01T04:05:03.825Z,85.11
2022-12-01T04:08:26.690Z,85.27
2022-12-01T04:11:35.369Z,85.68
2022-12-01T04:14:43.686Z,85.80
2022-12-01T04:17:55.209Z,85.76
2022-12-01T04:21:17.729Z,85.59
2022-12-01T04:24:33.811Z,85.52
2022-12-01T04:27:36.045Z,86.00
2022-12-01T04:30:50.647Z,86.51
2022-12-01T04:34:05.063Z,86.90
2022-12-01T04:37:21.515Z,87.31
2022-12-01T04:40:29.778Z,87.47
2022-12-01T04:43:56.970Z,87.43
2022-12-01T04:47:03.794Z,87.79
2022-12-01T04:50:19.726Z,87.69
2022-12-01T04:57:05.701Z,88.13
2022-12-01T05:00:08.080Z,87.95
2022-12-01T05:03:33.803Z,87.80
2022-12-01T05:06:54.475Z,87.52
2022-12-01T05:10:10.647Z,87.54
2022-12-01T05:13:18.768Z,87.70
2022-12-01T05:16:40.777Z,87.92
2022-12-01T05:19:49.859Z,87.76
2022-12-01T05:23:06.565Z,87.66
2022-12-01T05:26:15.730Z,87.79
2022-12-01T05:29:24.306Z,87.95
2022-12-01T05:32:33.009Z,87.62
2022-12-01T05:35:57.692Z,87.54
2022-12-01T05:38:59.887Z,88.06
2022-12-01T05:42:15.120Z,88.12
2022-12-01T05:45:17.295Z,88.51
2022-12-01T05:48:34.998Z,88.48
2022-12-01T05:51:36.947Z,89.10
2022-12-01T05:54:59.200Z,89.33
2022-12-01T05:58:01.623Z,89.60
2022-12-01T06:01:16.958Z,89.93
2022-12-01T06:04:18.748Z,90.42
2022-12-01T06:07:39.729Z,90.25
2022-12-01T06:10:41.756Z,90.09
2022-12-01T06:14:18.730Z,90.31
2022-12-01T06:17:23.581Z,90.48
2022-12-01T06:20:39.688Z,91.01
2022-12-01T06:23:58.762Z,91.16
2022-12-01T06:27:07.475Z,91.45
2022-12-01T06:30:15.835Z,91.60
2022-12-01T06:41:37.686Z,92.85
2022-12-01T06:55:50.200Z,93.28
2022-12-01T07:03:13.551Z,92.55
2022-12-01T07:14:46.074Z,93.08
2022-12-01T07:18:05.907Z,93.40
2022-12-01T07:21:47.731Z,93.50
2022-12-01T07:25:02.834Z,93.08
2022-12-01T07:28:19.559Z,92.68
2022-12-01T07:39:19.820Z,90.82
2022-12-01T07:42:39.913Z,90.38
2022-12-01T07:54:07.589Z,90.52
2022-12-01T07:58:19.495Z,90.73
2022-12-01T08:02:17.317Z,90.48
2022-12-01T08:37:19.287Z,83.94
2022-12-01T09:21:23.041Z,77.77
2022-12-01T09:29:00.564Z,76.12
2022-12-01T09:45:34.722Z,74.24
2022-12-01T11:55:29.351Z,70.34
2022-12-01T12:19:52.485Z,70.07
2022-12-01T12:23:36.796Z,70.14
2022-12-01T12:35:01.764Z,70.27
2022-12-01T12:47:19.921Z,70.16
2022-12-01T12:59:26.908Z,70.41
2022-12-01T13:29:47.317Z,68.16
2022-12-01T13:33:48.042Z,68.63
2022-12-01T13:37:00.851Z,68.53
2022-12-01T13:40:35.045Z,68.85
2022-12-01T14:27:38.771Z,71.27
2022-12-01T14:35:01.780Z,71.80
2022-12-01T14:38:34.804Z,71.62
2022-12-01T14:57:07.362Z,72.51
2022-12-01T15:00:24.137Z,72.86
2022-12-01T15:16:28.916Z,72.51
2022-12-01T15:20:04.824Z,73.19
2022-12-01T15:27:03.666Z,73.13
2022-12-01T15:30:20.921Z,73.05
2022-12-01T15:33:37.163Z,73.45
2022-12-01T15:36:52.776Z,73.39
2022-12-01T15:41:27.462Z,73.33
2022-12-01T15:44:37.758Z,73.85
2022-12-01T15:51:44.983Z,74.61
2022-12-01T16:06:41.781Z,75.29
2022-12-01T16:10:37.793Z,75.44
2022-12-01T16:14:21.879Z,76.00
2022-12-01T16:29:59.867Z,77.35
2022-12-01T16:45:50.834Z,78.54
2022-12-01T16:49:05.767Z,78.71
2022-12-01T16:56:33.830Z,78.38
2022-12-01T16:59:55.905Z,78.57
2022-12-01T17:03:51.762Z,78.50
2022-12-01T17:07:06.837Z,79.03
2022-12-01T17:14:06.842Z,79.16
2022-12-01T17:17:21.934Z,79.72
2022-12-01T17:20:38.534Z,79.72
2022-12-01T17:24:09.490Z,79.76
2022-12-01T17:27:45.800Z,79.59
2022-12-01T17:30:53.888Z,79.94
2022-12-01T17:45:10.346Z,81.46
2022-12-01T17:48:24.757Z,81.66
2022-12-01T17:54:58.406Z,82.05
2022-12-01T17:58:12.849Z,82.48
2022-12-01T18:01:33.914Z,82.83
2022-12-01T18:07:55.833Z,83.74
2022-12-01T18:11:14.746Z,83.97
2022-12-01T18:14:31.777Z,84.27
2022-12-01T18:17:40.309Z,84.22
2022-12-01T18:20:49.746Z,83.88
2022-12-01T18:24:07.761Z,84.37
2022-12-01T18:27:33.014Z,84.37
2022-12-01T18:30:58.827Z,84.33
2022-12-01T18:38:11.778Z,84.64
2022-12-01T18:41:45.939Z,84.87
2022-12-01T18:45:23.041Z,84.90
2022-12-01T18:53:42.880Z,85.16
2022-12-01T18:56:59.779Z,85.35
2022-12-01T19:00:08.849Z,85.67
2022-12-01T19:03:23.853Z,85.64
2022-12-01T19:10:15.786Z,85.68
2022-12-01T19:13:17.661Z,86.19
2022-12-01T19:16:34.886Z,86.56
2022-12-01T19:19:37.703Z,87.03
2022-12-01T19:22:54.877Z,87.10
2022-12-01T19:29:16.875Z,86.32
2022-12-01T19:32:31.890Z,86.26
2022-12-01T19:35:40.470Z,86.42
2022-12-01T19:38:55.823Z,86.39
2022-12-01T19:42:05.511Z,86.52
2022-12-01T19:45:14.827Z,86.80
2022-12-01T19:48:23.361Z,87.14
2022-12-01T19:51:40.785Z,87.34
2022-12-01T19:54:55.871Z,87.31
2022-12-01T19:57:57.563Z,87.40
2022-12-01T20:01:15.851Z,87.58
2022-12-01T20:04:17.638Z,87.72
2022-12-01T20:07:32.047Z,87.74
2022-12-01T20:14:57.892Z,87.97
2022-12-01T20:18:05.778Z,88.06
2022-12-01T20:21:19.914Z,88.54
2022-12-01T20:24:54.754Z,88.86
2022-12-01T20:28:09.839Z,89.12
2022-12-01T20:31:17.326Z,89.32
2022-12-01T20:34:37.843Z,89.66
2022-12-01T20:37:39.385Z,89.70
2022-12-01T20:41:00.846Z,90.06
2022-12-01T20:44:09.835Z,90.55
2022-12-01T20:47:17.834Z,91.25
2022-12-01T20:50:26.539Z,91.62
2022-12-01T20:53:34.824Z,92.07
2022-12-01T20:56:49.805Z,92.57
2022-12-01T20:59:51.566Z,92.55
2022-12-01T21:03:05.882Z,92.89
2022-12-01T21:10:36.358Z,93.80
2022-12-01T21:13:46.277Z,94.27
2022-12-01T21:17:06.014Z,94.57
2022-12-01T21:24:54.289Z,95.23
2022-12-01T21:32:05.907Z,95.75
2022-12-01T21:42:57.873Z,96.32
2022-12-01T21:46:19.895Z,96.53
2022-12-01T21:54:16.546Z,96.94
2022-12-01T21:58:24.830Z,97.08
2022-12-01T22:01:34.535Z,97.53
2022-12-01T22:04:44.105Z,98.00
2022-12-01T22:11:38.141Z,98.46
2022-12-01T22:14:53.136Z,98.31
2022-12-01T22:18:37.723Z,97.99
2022-12-01T22:21:55.914Z,97.26
2022-12-01T22:25:28.851Z,97.06
2022-12-01T22:28:30.641Z,96.73
2022-12-01T22:31:45.854Z,96.33
2022-12-01T22:35:03.821Z,95.82
2022-12-01T22:38:33.855Z,95.57
2022-12-01T22:41:42.411Z,95.20
2022-12-01T22:44:56.826Z,94.89
2022-12-01T22:48:31.533Z,94.74
2022-12-01T22:51:47.837Z,94.73
2022-12-01T22:55:21.786Z,94.60
2022-12-01T22:58:36.836Z,94.71
2022-12-01T23:01:52.636Z,94.66
2022-12-01T23:05:04.837Z,94.70
2022-12-01T23:08:28.801Z,94.68
2022-12-01T23:11:30.486Z,94.50
2022-12-01T23:14:53.052Z,94.35
2022-12-01T23:17:55.109Z,94.03
2022-12-01T23:21:09.864Z,94.10
2022-12-01T23:24:21.955Z,94.15
2022-12-01T23:27:30.837Z,94.37
2022-12-01T23:30:39.818Z,93.99
2022-12-01T23:33:54.822Z,93.91
2022-12-01T23:37:02.857Z,93.77
2022-12-01T23:40:31.266Z,93.13
2022-12-01T23:43:44.874Z,93.07
2022-12-01T23:47:02.828Z,92.90
2022-12-01T23:50:13.225Z,92.82
2022-12-01T23:53:32.898Z,92.77
2022-12-01T23:56:37.798Z,92.64
2022-12-01T23:59:52.871Z,92.56
